createdAt,value
2022-10-05T00:02:20.209Z,5.13
2022-10-05T00:08:01.624Z,4.35
2022-10-05T00:10:47.527Z,5.15
2022-10-05T00:13:33.563Z,5.45
2022-10-05T00:16:22.577Z,5.30
2022-10-05T00:19:19.373Z,4.40
2022-10-05T00:22:17.144Z,4.90
2022-10-05T00:25:11.048Z,5.00
2022-10-05T00:27:58.766Z,6.93
2022-10-05T00:33:30.001Z,6.72
2022-10-05T00:36:15.375Z,6.93
2022-10-05T00:39:02.085Z,5.65
2022-10-05T00:42:08.788Z,4.80
2022-10-05T00:45:15.950Z,5.72
2022-10-05T00:48:21.286Z,5.13
2022-10-05T00:51:25.595Z,5.95
2022-10-05T00:54:22.907Z,5.15
2022-10-05T00:57:18.343Z,4.63
2022-10-05T01:00:17.344Z,5.40
2022-10-05T01:03:20.838Z,4.43
2022-10-05T01:06:33.398Z,7.70
2022-10-05T01:09:33.328Z,6.93
2022-10-05T01:12:25.274Z,7.85
2022-10-05T01:15:42.600Z,5.53
2022-10-05T01:18:50.351Z,6.53
2022-10-05T01:21:49.371Z,5.50
2022-10-05T01:24:40.805Z,4.68
2022-10-05T01:27:41.297Z,4.43
2022-10-05T01:30:56.138Z,3.90
2022-10-05T01:34:33.987Z,4.53
2022-10-05T01:37:53.926Z,6.78
2022-10-05T01:40:47.267Z,4.40
2022-10-05T01:44:21.008Z,4.35
2022-10-05T01:47:36.607Z,4.22
2022-10-05T01:50:31.005Z,4.47
2022-10-05T01:53:34.900Z,3.35
2022-10-05T01:57:08.803Z,4.95
2022-10-05T02:00:10.242Z,4.38
2022-10-05T02:03:17.402Z,6.60
2022-10-05T02:06:15.210Z,5.40
2022-10-05T02:09:08.261Z,4.35
2022-10-05T02:12:04.765Z,4.85
2022-10-05T02:14:56.950Z,5.97
2022-10-05T02:17:48.567Z,5.72
2022-10-05T02:20:40.129Z,4.72
2022-10-05T02:23:31.047Z,5.05
2022-10-05T02:26:16.844Z,4.68
2022-10-05T02:29:07.681Z,4.28
2022-10-05T02:32:19.983Z,4.72
2022-10-05T02:35:14.553Z,5.82
2022-10-05T02:38:03.477Z,4.18
2022-10-05T02:40:55.635Z,3.85
2022-10-05T02:44:03.098Z,4.75
2022-10-05T02:46:58.231Z,3.97
2022-10-05T02:50:01.613Z,3.63
2022-10-05T02:52:47.152Z,3.47
2022-10-05T02:56:14.559Z,5.18
2022-10-05T02:59:06.334Z,3.20
2022-10-05T03:02:21.320Z,2.92
2022-10-05T03:05:23.856Z,2.97
2022-10-05T03:08:14.535Z,3.58
2022-10-05T03:11:15.052Z,3.30
2022-10-05T03:14:28.501Z,4.07
2022-10-05T03:17:25.568Z,4.07
2022-10-05T03:20:35.272Z,5.38
2022-10-05T03:23:52.114Z,4.40
2022-10-05T03:27:03.670Z,5.13
2022-10-05T03:30:04.814Z,3.58
2022-10-05T03:33:02.024Z,6.47
2022-10-05T03:36:15.262Z,6.38
2022-10-05T03:39:12.129Z,3.58
2022-10-05T03:42:04.033Z,4.07
2022-10-05T03:44:58.278Z,3.70
2022-10-05T03:48:09.347Z,3.13
2022-10-05T03:51:13.344Z,4.50
2022-10-05T03:54:26.469Z,5.43
2022-10-05T03:57:28.236Z,4.15
2022-10-05T04:00:17.931Z,4.75
2022-10-05T04:03:44.553Z,5.00
2022-10-05T04:06:36.536Z,4.05
2022-10-05T04:09:45.650Z,7.47
2022-10-05T04:12:40.304Z,7.10
2022-10-05T04:15:50.412Z,7.00
2022-10-05T04:18:40.266Z,5.88
2022-10-05T04:21:41.379Z,5.78
2022-10-05T04:24:52.756Z,5.47
2022-10-05T04:27:43.968Z,5.07
2022-10-05T04:30:32.867Z,5.43
2022-10-05T04:33:18.478Z,7.40
2022-10-05T04:36:22.526Z,8.05
2022-10-05T04:39:27.507Z,8.20
2022-10-05T04:42:25.735Z,6.45
2022-10-05T04:45:24.441Z,6.82
2022-10-05T04:48:44.622Z,5.60
2022-10-05T04:51:53.719Z,4.13
2022-10-05T04:54:54.045Z,4.32
2022-10-05T04:58:17.242Z,4.50
2022-10-05T05:01:23.082Z,4.43
2022-10-05T05:04:20.830Z,3.90
2022-10-05T05:07:19.746Z,4.93
2022-10-05T05:10:42.739Z,2.65
2022-10-05T05:13:31.387Z,3.40
2022-10-05T05:16:35.832Z,4.05
2022-10-05T05:19:50.528Z,4.53
2022-10-05T05:22:52.763Z,4.07
2022-10-05T05:26:15.105Z,4.03
2022-10-05T05:29:46.092Z,3.78
2022-10-05T05:32:54.280Z,3.20
2022-10-05T05:35:47.081Z,4.97
2022-10-05T05:38:41.587Z,7.00
2022-10-05T05:41:37.764Z,7.70
2022-10-05T05:44:27.848Z,11.90
2022-10-05T05:47:35.403Z,7.78
2022-10-05T05:50:48.040Z,5.25
2022-10-05T05:53:44.328Z,4.75
2022-10-05T05:56:34.769Z,3.88
2022-10-05T05:59:33.630Z,5.28
2022-10-05T06:02:25.389Z,4.80
2022-10-05T06:05:23.698Z,5.82
2022-10-05T06:08:17.871Z,5.93
2022-10-05T06:11:17.792Z,6.50
2022-10-05T06:14:16.349Z,4.95
2022-10-05T06:17:11.021Z,4.40
2022-10-05T06:20:03.984Z,4.10
2022-10-05T06:22:54.386Z,4.75
2022-10-05T06:26:11.107Z,4.85
2022-10-05T06:29:04.205Z,3.78
2022-10-05T06:32:14.977Z,2.88
2022-10-05T06:35:11.729Z,4.28
2022-10-05T06:38:22.874Z,5.97
2022-10-05T06:41:14.481Z,7.30
2022-10-05T06:44:06.501Z,4.28
2022-10-05T06:47:07.416Z,4.65
2022-10-05T06:50:18.996Z,4.90
2022-10-05T06:53:57.698Z,4.22
2022-10-05T06:57:00.018Z,4.45
2022-10-05T07:00:01.037Z,4.50
2022-10-05T07:03:22.436Z,3.85
2022-10-05T07:06:16.644Z,5.35
2022-10-05T07:09:14.280Z,4.55
2022-10-05T07:12:39.646Z,3.83
2022-10-05T07:15:52.858Z,4.00
2022-10-05T07:19:16.170Z,5.10
2022-10-05T07:22:11.009Z,6.57
2022-10-05T07:25:10.556Z,4.55
2022-10-05T07:28:27.366Z,6.32
2022-10-05T07:31:29.771Z,10.07
2022-10-05T07:34:29.653Z,6.35
2022-10-05T07:37:44.394Z,7.63
2022-10-05T07:40:47.740Z,7.50
2022-10-05T07:44:16.046Z,5.60
2022-10-05T07:47:15.740Z,6.28
2022-10-05T07:50:38.807Z,5.03
2022-10-05T07:53:36.760Z,5.30
2022-10-05T07:56:32.145Z,6.80
2022-10-05T07:59:31.889Z,5.90
2022-10-05T08:02:44.502Z,5.22
2022-10-05T08:05:32.829Z,5.13
2022-10-05T08:11:36.510Z,6.13
2022-10-05T08:14:34.982Z,4.55
2022-10-05T08:17:35.774Z,5.18
2022-10-05T08:20:49.241Z,5.25
2022-10-05T08:23:49.514Z,4.15
2022-10-05T08:26:51.622Z,4.00
2022-10-05T08:29:58.500Z,4.65
2022-10-05T08:32:57.419Z,5.22
2022-10-05T08:35:46.169Z,4.05
2022-10-05T08:38:33.695Z,4.00
2022-10-05T08:41:41.108Z,5.13
2022-10-05T08:45:03.176Z,5.90
2022-10-05T08:48:23.233Z,5.00
2022-10-05T08:51:42.639Z,4.45
2022-10-05T08:54:42.159Z,6.20
2022-10-05T08:57:50.561Z,5.47
2022-10-05T09:00:57.876Z,5.07
2022-10-05T09:03:58.618Z,5.97
2022-10-05T09:07:13.346Z,5.80
2022-10-05T09:10:33.123Z,3.83
2022-10-05T09:13:42.904Z,5.20
2022-10-05T09:16:36.678Z,4.40
2022-10-05T09:19:40.589Z,4.55
2022-10-05T09:22:38.317Z,3.60
2022-10-05T09:28:37.771Z,4.53
2022-10-05T09:34:36.568Z,2.55
2022-10-05T09:37:54.381Z,2.80
2022-10-05T09:41:10.870Z,3.40
2022-10-05T09:44:34.542Z,2.72
2022-10-05T09:47:59.834Z,3.03
2022-10-05T09:51:13.956Z,2.40
2022-10-05T09:54:38.008Z,2.20
2022-10-05T09:57:42.397Z,2.63
2022-10-05T10:01:29.111Z,3.00
2022-10-05T10:04:52.143Z,1.98
2022-10-05T10:07:51.533Z,2.35
2022-10-05T10:10:49.684Z,1.80
2022-10-05T10:14:00.484Z,2.13
2022-10-05T10:17:08.717Z,2.03
2022-10-05T10:20:19.348Z,2.35
2022-10-05T10:23:21.422Z,2.15
2022-10-05T10:26:18.152Z,2.40
2022-10-05T10:29:29.874Z,2.80
2022-10-05T10:32:51.230Z,2.10
2022-10-05T10:35:39.912Z,1.77
2022-10-05T10:38:49.665Z,1.90
2022-10-05T10:42:08.604Z,2.10
2022-10-05T10:44:53.870Z,2.42
2022-10-05T10:48:03.315Z,1.85
2022-10-05T10:51:13.745Z,2.35
2022-10-05T10:54:09.077Z,2.20
2022-10-05T10:57:00.719Z,2.10
2022-10-05T11:00:19.279Z,2.25
2022-10-05T11:03:39.416Z,2.15
2022-10-05T11:06:46.950Z,1.70
2022-10-05T11:09:56.976Z,1.70
2022-10-05T11:13:19.765Z,1.52
2022-10-05T11:16:20.529Z,1.60
2022-10-05T11:19:24.882Z,1.67
2022-10-05T11:22:53.611Z,1.60
2022-10-05T11:26:13.331Z,1.60
2022-10-05T11:29:23.288Z,1.58
2022-10-05T11:32:17.897Z,1.77
2022-10-05T11:35:18.305Z,1.98
2022-10-05T11:38:28.332Z,1.45
2022-10-05T11:41:28.290Z,1.75
2022-10-05T11:44:28.905Z,1.80
2022-10-05T11:47:31.878Z,1.48
2022-10-05T11:50:21.760Z,1.70
2022-10-05T11:53:29.402Z,1.95
2022-10-05T11:56:25.521Z,1.90
2022-10-05T11:59:23.229Z,2.00
2022-10-05T12:02:58.218Z,2.15
2022-10-05T12:06:16.887Z,1.40
2022-10-05T12:09:21.714Z,1.80
2022-10-05T12:12:10.275Z,1.30
2022-10-05T12:15:15.038Z,1.58
2022-10-05T12:18:15.440Z,1.38
2022-10-05T12:21:31.882Z,1.60
2022-10-05T12:24:29.543Z,1.70
2022-10-05T12:27:23.372Z,1.50
2022-10-05T12:30:16.692Z,1.60
2022-10-05T12:33:15.427Z,2.10
2022-10-05T12:36:14.371Z,1.48
2022-10-05T12:39:14.794Z,1.85
2022-10-05T12:42:16.948Z,1.30
2022-10-05T12:45:22.447Z,1.45
2022-10-05T12:48:27.584Z,1.30
2022-10-05T12:51:31.873Z,1.58
2022-10-05T12:54:33.154Z,1.60
2022-10-05T12:58:16.072Z,1.80
2022-10-05T13:01:17.340Z,1.20
2022-10-05T13:04:48.015Z,1.80
2022-10-05T13:08:05.512Z,1.48
2022-10-05T13:11:02.244Z,1.65
2022-10-05T13:14:07.416Z,1.73
2022-10-05T13:17:04.833Z,1.80
2022-10-05T13:20:02.468Z,1.98
2022-10-05T13:22:59.903Z,1.70
2022-10-05T13:26:10.365Z,1.60
2022-10-05T13:29:05.857Z,1.50
2022-10-05T13:31:55.608Z,2.58
2022-10-05T13:34:58.087Z,1.80
2022-10-05T13:37:43.533Z,1.67
2022-10-05T13:40:32.592Z,1.50
2022-10-05T13:43:28.246Z,1.80
2022-10-05T13:46:37.013Z,2.00
2022-10-05T13:49:49.352Z,1.38
2022-10-05T13:53:03.174Z,1.80
2022-10-05T13:55:59.102Z,1.85
2022-10-05T13:58:50.968Z,1.80
2022-10-05T14:02:00.759Z,1.63
2022-10-05T14:04:51.006Z,1.40
2022-10-05T14:07:36.737Z,1.58
2022-10-05T14:10:34.341Z,1.42
2022-10-05T14:13:19.854Z,1.45
2022-10-05T14:16:21.569Z,1.75
2022-10-05T14:19:06.858Z,1.55
2022-10-05T14:22:02.226Z,4.22
2022-10-05T14:24:55.615Z,1.58
2022-10-05T14:27:58.390Z,1.70
2022-10-05T14:31:00.232Z,1.45
2022-10-05T14:33:45.582Z,1.77
2022-10-05T14:36:39.509Z,1.65
2022-10-05T14:39:27.925Z,1.50
2022-10-05T14:42:16.565Z,1.70
2022-10-05T14:45:17.748Z,1.60
2022-10-05T14:48:10.534Z,1.30
2022-10-05T14:50:59.418Z,1.40
2022-10-05T14:53:57.164Z,1.20
2022-10-05T14:56:42.623Z,1.65
2022-10-05T14:59:45.865Z,1.58
2022-10-05T15:03:04.254Z,1.80
2022-10-05T15:06:01.549Z,1.55
2022-10-05T15:08:54.306Z,1.70
2022-10-05T15:11:51.341Z,1.58
2022-10-05T15:14:43.033Z,1.50
2022-10-05T15:17:43.419Z,1.38
2022-10-05T15:20:31.657Z,1.88
2022-10-05T15:23:27.338Z,1.73
2022-10-05T15:26:49.192Z,1.63
2022-10-05T15:29:54.901Z,1.60
2022-10-05T15:33:09.307Z,1.35
2022-10-05T15:36:16.358Z,1.40
2022-10-05T15:39:28.505Z,1.40
2022-10-05T15:42:17.465Z,1.38
2022-10-05T15:45:34.192Z,1.40
2022-10-05T15:48:35.829Z,1.52
2022-10-05T15:51:50.318Z,1.30
2022-10-05T15:55:07.679Z,9.23
2022-10-05T15:58:16.528Z,1.58
2022-10-05T16:01:11.821Z,2.40
2022-10-05T16:04:19.070Z,1.73
2022-10-05T16:07:39.089Z,1.60
2022-10-05T16:10:26.276Z,1.58
2022-10-05T16:13:41.572Z,1.50
2022-10-05T16:16:37.596Z,1.77
2022-10-05T16:19:55.386Z,1.42
2022-10-05T16:22:51.684Z,1.77
2022-10-05T16:25:58.325Z,1.75
2022-10-05T16:28:56.052Z,2.00
2022-10-05T16:32:04.399Z,1.50
2022-10-05T16:34:56.207Z,1.85
2022-10-05T16:37:49.542Z,2.00
2022-10-05T16:40:47.936Z,2.15
2022-10-05T16:43:53.412Z,3.17
2022-10-05T16:47:28.277Z,2.17
2022-10-05T16:50:32.348Z,2.20
2022-10-05T16:53:31.875Z,1.77
2022-10-05T16:56:22.408Z,2.08
2022-10-05T16:59:17.119Z,2.67
2022-10-05T17:02:30.025Z,2.08
2022-10-05T17:05:55.209Z,2.72
2022-10-05T17:09:02.022Z,4.05
2022-10-05T17:12:12.680Z,3.22
2022-10-05T17:15:08.962Z,5.65
2022-10-05T17:18:23.843Z,8.13
2022-10-05T17:21:16.366Z,5.22
2022-10-05T17:24:30.021Z,6.45
2022-10-05T17:27:33.240Z,5.80
2022-10-05T17:30:28.499Z,4.38
2022-10-05T17:33:20.007Z,3.65
2022-10-05T17:36:08.433Z,3.35
2022-10-05T17:39:14.221Z,3.67
2022-10-05T17:42:31.581Z,3.22
2022-10-05T17:45:20.132Z,3.65
2022-10-05T17:48:09.694Z,3.60
2022-10-05T17:51:13.950Z,3.72
2022-10-05T17:54:18.146Z,3.97
2022-10-05T17:57:04.581Z,4.00
2022-10-05T17:59:53.011Z,4.18
2022-10-05T18:02:42.866Z,4.38
2022-10-05T18:05:29.818Z,4.63
2022-10-05T18:08:16.572Z,3.70
2022-10-05T18:11:17.166Z,3.45
2022-10-05T18:14:19.513Z,2.75
2022-10-05T18:17:14.268Z,3.08
2022-10-05T18:20:21.796Z,3.80
2022-10-05T18:23:07.310Z,3.33
2022-10-05T18:26:01.374Z,3.67
2022-10-05T18:29:14.539Z,3.75
2022-10-05T18:32:08.012Z,4.20
2022-10-05T18:35:25.192Z,4.20
2022-10-05T18:38:35.675Z,3.78
2022-10-05T18:41:51.484Z,4.05
2022-10-05T18:44:46.256Z,3.95
2022-10-05T18:47:46.916Z,3.95
2022-10-05T18:50:41.839Z,3.90
2022-10-05T18:53:35.849Z,3.03
2022-10-05T18:56:48.699Z,3.15
2022-10-05T18:59:40.222Z,4.25
2022-10-05T19:02:40.508Z,4.75
2022-10-05T19:05:54.473Z,4.07
2022-10-05T19:08:58.075Z,5.10
2022-10-05T19:12:00.251Z,5.45
2022-10-05T19:15:06.980Z,6.18
2022-10-05T19:17:55.288Z,5.38
2022-10-05T19:20:53.287Z,5.32
2022-10-05T19:24:04.507Z,4.57
2022-10-05T19:27:19.475Z,6.13
2022-10-05T19:30:20.687Z,6.15
2022-10-05T19:33:18.351Z,6.40
2022-10-05T19:36:18.963Z,10.50
2022-10-05T19:39:16.937Z,6.80
2022-10-05T19:42:11.775Z,6.72
2022-10-05T19:45:09.668Z,3.80
2022-10-05T19:47:58.141Z,3.40
2022-10-05T19:50:57.456Z,3.63
2022-10-05T19:53:47.140Z,3.15
2022-10-05T19:56:35.380Z,3.20
2022-10-05T19:59:25.127Z,4.70
2022-10-05T20:02:16.094Z,4.03
2022-10-05T20:05:07.426Z,3.83
2022-10-05T20:07:53.084Z,4.90
2022-10-05T20:10:38.297Z,4.55
2022-10-05T20:13:23.889Z,4.30
2022-10-05T20:16:47.770Z,4.22
2022-10-05T20:19:36.075Z,3.50
2022-10-05T20:22:46.552Z,2.97
2022-10-05T20:25:32.560Z,3.17
2022-10-05T20:28:38.339Z,3.38
2022-10-05T20:31:23.585Z,4.78
2022-10-05T20:34:09.049Z,3.38
2022-10-05T20:36:54.355Z,3.30
2022-10-05T20:39:40.390Z,4.43
2022-10-05T20:42:26.728Z,4.57
2022-10-05T20:45:13.241Z,3.70
2022-10-05T20:47:58.690Z,4.10
2022-10-05T20:50:44.504Z,4.45
2022-10-05T20:53:30.164Z,5.15
2022-10-05T20:56:16.169Z,4.18
2022-10-05T20:59:01.586Z,5.50
2022-10-05T21:01:50.449Z,6.78
2022-10-05T21:04:43.080Z,7.07
2022-10-05T21:07:28.536Z,6.55
2022-10-05T21:10:14.263Z,5.45
2022-10-05T21:13:02.871Z,6.38
2022-10-05T21:15:48.949Z,5.13
2022-10-05T21:18:34.576Z,5.10
2022-10-05T21:21:19.851Z,4.88
2022-10-05T21:24:05.975Z,4.88
2022-10-05T21:26:51.644Z,4.15
2022-10-05T21:29:37.312Z,4.85
2022-10-05T21:32:22.709Z,4.60
2022-10-05T21:35:08.496Z,4.63
2022-10-05T21:37:54.220Z,5.97
2022-10-05T21:40:39.694Z,10.80
2022-10-05T21:43:25.666Z,8.05
2022-10-05T21:46:14.597Z,7.63
2022-10-05T21:49:00.367Z,7.15
2022-10-05T21:51:45.872Z,5.90
2022-10-05T21:54:32.724Z,5.55
2022-10-05T21:57:18.723Z,5.07
2022-10-05T22:00:08.034Z,4.25
2022-10-05T22:02:53.377Z,4.63
2022-10-05T22:05:38.785Z,5.53
2022-10-05T22:08:29.350Z,5.65
2022-10-05T22:11:17.913Z,4.28
2022-10-05T22:14:03.800Z,4.18
2022-10-05T22:16:49.355Z,4.10
2022-10-05T22:19:34.682Z,6.60
2022-10-05T22:22:20.879Z,7.43
2022-10-05T22:25:06.862Z,4.50
2022-10-05T22:27:52.034Z,5.13
2022-10-05T22:30:38.550Z,4.57
2022-10-05T22:33:24.181Z,4.53
2022-10-05T22:36:09.836Z,5.68
2022-10-05T22:38:55.312Z,5.50
2022-10-05T22:41:40.603Z,6.03
2022-10-05T22:44:26.017Z,5.38
2022-10-05T22:47:11.421Z,5.40
2022-10-05T22:49:56.754Z,6.05
2022-10-05T22:52:42.657Z,5.85
2022-10-05T22:55:27.919Z,5.88
2022-10-05T22:58:13.533Z,6.43
2022-10-05T23:01:04.094Z,6.28
2022-10-05T23:03:49.951Z,6.60
2022-10-05T23:06:35.181Z,6.50
2022-10-05T23:09:20.732Z,6.07
2022-10-05T23:12:06.559Z,6.45
2022-10-05T23:14:52.360Z,6.05
2022-10-05T23:17:39.246Z,5.00
2022-10-05T23:20:24.891Z,3.67
2022-10-05T23:23:10.823Z,3.70
2022-10-05T23:26:00.916Z,2.90
2022-10-05T23:28:47.319Z,2.38
2022-10-05T23:31:33.676Z,2.63
2022-10-05T23:34:19.331Z,2.45
2022-10-05T23:37:05.003Z,2.08
2022-10-05T23:39:50.125Z,1.90
2022-10-05T23:42:35.898Z,2.08
2022-10-05T23:45:21.622Z,1.90
2022-10-05T23:48:07.007Z,2.17
2022-10-05T23:50:53.097Z,1.90
2022-10-05T23:53:38.646Z,1.77
2022-10-05T23:56:24.034Z,1.73
2022-10-05T23:59:09.478Z,2.10
